createdAt,value
2018-01-06T00:00:48.494Z,999.13
2018-01-06T00:01:48.895Z,999.17
2018-01-06T00:02:49.008Z,999.13
2018-01-06T00:03:49.013Z,999.12
2018-01-06T00:04:48.971Z,999.17
2018-01-06T00:05:49.000Z,999.09
2018-01-06T00:06:49.117Z,999.13
2018-01-06T00:07:49.090Z,999.11
2018-01-06T00:08:49.070Z,999.19
2018-01-06T00:09:49.340Z,999.16
2018-01-06T00:10:49.227Z,999.08
2018-01-06T00:11:49.281Z,999.12
2018-01-06T00:12:49.546Z,999.13
2018-01-06T00:13:49.750Z,999.17
2018-01-06T00:14:49.764Z,999.18
2018-01-06T00:15:50.205Z,999.26
2018-01-06T00:16:50.362Z,999.21
2018-01-06T00:17:50.355Z,999.24
2018-01-06T00:18:50.776Z,999.25
2018-01-06T00:19:51.342Z,999.27
2018-01-06T00:20:51.396Z,999.31
2018-01-06T00:21:51.376Z,999.37
2018-01-06T00:22:51.401Z,999.34
2018-01-06T00:23:51.422Z,999.37
2018-01-06T00:24:51.447Z,999.38
2018-01-06T00:25:51.525Z,999.36
2018-01-06T00:26:52.045Z,999.35
2018-01-06T00:27:52.212Z,999.4
2018-01-06T00:28:52.281Z,999.35
2018-01-06T00:29:52.225Z,999.37
2018-01-06T00:30:52.245Z,999.33
2018-01-06T00:31:52.291Z,999.31
2018-01-06T00:32:52.412Z,999.34
2018-01-06T00:33:52.813Z,999.36
2018-01-06T00:34:52.756Z,999.39
2018-01-06T00:35:52.940Z,999.36
2018-01-06T00:36:52.998Z,999.48
2018-01-06T00:37:53.154Z,999.41
2018-01-06T00:38:53.173Z,999.49
2018-01-06T00:39:53.067Z,999.5
2018-01-06T00:40:53.093Z,999.47
2018-01-06T00:41:53.068Z,999.4
2018-01-06T00:42:53.083Z,999.38
2018-01-06T00:43:53.133Z,999.42
2018-01-06T00:44:53.210Z,999.46
2018-01-06T00:45:53.199Z,999.4
2018-01-06T00:46:53.182Z,999.43
2018-01-06T00:47:53.236Z,999.51
2018-01-06T00:48:53.502Z,999.53
2018-01-06T00:49:53.254Z,999.59
2018-01-06T00:50:53.606Z,999.56
2018-01-06T00:51:53.534Z,999.59
2018-01-06T00:52:53.811Z,999.67
2018-01-06T00:53:54.151Z,999.6
2018-01-06T00:54:53.881Z,999.63
2018-01-06T00:55:53.885Z,999.63
2018-01-06T00:56:54.383Z,999.61
2018-01-06T00:57:53.970Z,999.6
2018-01-06T00:58:53.968Z,999.62
2018-01-06T00:59:54.005Z,999.65
2018-01-06T01:00:54.015Z,999.7
2018-01-06T01:01:54.734Z,999.7
2018-01-06T01:02:54.620Z,999.66
2018-01-06T01:03:54.609Z,999.63
2018-01-06T01:04:54.714Z,999.63
2018-01-06T01:05:54.746Z,999.61
2018-01-06T01:06:55.050Z,999.57
2018-01-06T01:07:55.200Z,999.66
2018-01-06T01:08:55.485Z,999.59
2018-01-06T01:09:55.511Z,999.62
2018-01-06T01:10:55.553Z,999.61
2018-01-06T01:11:55.560Z,999.63
2018-01-06T01:12:55.691Z,999.62
2018-01-06T01:13:55.710Z,999.62
2018-01-06T01:14:56.141Z,999.63
2018-01-06T01:15:56.578Z,999.65
2018-01-06T01:16:56.813Z,999.66
2018-01-06T01:17:57.746Z,999.66
2018-01-06T01:18:57.618Z,999.64
2018-01-06T01:19:57.642Z,999.68
2018-01-06T01:20:57.671Z,999.65
2018-01-06T01:21:57.696Z,999.67
2018-01-06T01:22:58.132Z,999.64
2018-01-06T01:23:58.186Z,999.7
2018-01-06T01:24:58.286Z,999.73
2018-01-06T01:25:58.318Z,999.82
2018-01-06T01:26:58.346Z,999.9
2018-01-06T01:27:58.565Z,999.87
2018-01-06T01:28:58.424Z,999.89
2018-01-06T01:29:58.428Z,999.88
2018-01-06T01:30:59.217Z,999.84
2018-01-06T01:31:58.921Z,999.83
2018-01-06T01:32:59.046Z,999.85
2018-01-06T01:33:59.058Z,999.91
2018-01-06T01:34:59.072Z,999.92
2018-01-06T01:35:59.320Z,999.91
2018-01-06T01:36:59.420Z,999.92
2018-01-06T01:37:59.433Z,999.94
2018-01-06T01:38:59.491Z,999.93
2018-01-06T01:39:59.468Z,999.97
2018-01-06T01:40:59.890Z,1000.03
2018-01-06T01:42:00.150Z,1000.05
2018-01-06T01:43:00.157Z,1000.05
2018-01-06T01:44:00.217Z,999.95
2018-01-06T01:45:00.277Z,1000.01
2018-01-06T01:46:00.253Z,1000.03
2018-01-06T01:47:00.861Z,1000
2018-01-06T01:48:00.886Z,999.99
2018-01-06T01:49:01.026Z,1000.08
2018-01-06T01:50:01.431Z,1000.04
2018-01-06T01:51:01.456Z,1000.02
2018-01-06T01:52:01.539Z,1000.03
2018-01-06T01:53:01.554Z,1000.07
2018-01-06T01:54:01.957Z,1000.01
2018-01-06T01:55:02.119Z,999.98
2018-01-06T01:56:02.120Z,1000.01
2018-01-06T01:57:02.332Z,1000.08
2018-01-06T01:58:02.477Z,1000.07
2018-01-06T01:59:02.825Z,1000.03
2018-01-06T02:01:02.885Z,1000.03
2018-01-06T02:02:02.894Z,1000.04
2018-01-06T02:03:02.925Z,1000.09
2018-01-06T02:04:03.286Z,1000.1
2018-01-06T02:05:03.306Z,1000.13
2018-01-06T02:06:03.516Z,1000.22
2018-01-06T02:07:03.759Z,1000.16
2018-01-06T02:08:04.223Z,1000.16
2018-01-06T02:09:04.393Z,1000.2
2018-01-06T02:10:04.475Z,1000.21
2018-01-06T02:11:04.422Z,1000.19
2018-01-06T02:12:04.584Z,1000.22
2018-01-06T02:13:04.604Z,1000.28
2018-01-06T02:14:04.693Z,1000.26
2018-01-06T02:15:04.798Z,1000.21
2018-01-06T02:16:04.744Z,1000.23
2018-01-06T02:17:05.118Z,1000.2
2018-01-06T02:18:05.488Z,1000.24
2018-01-06T02:19:05.541Z,1000.22
2018-01-06T02:20:05.543Z,1000.3
2018-01-06T02:21:05.629Z,1000.3
2018-01-06T02:22:05.674Z,1000.28
2018-01-06T02:23:05.693Z,1000.26
2018-01-06T02:24:05.701Z,1000.34
2018-01-06T02:25:05.883Z,1000.38
2018-01-06T02:26:05.899Z,1000.29
2018-01-06T02:27:06.180Z,1000.39
2018-01-06T02:28:06.213Z,1000.36
2018-01-06T02:29:06.234Z,1000.33
2018-01-06T02:30:06.659Z,1000.41
2018-01-06T02:31:06.687Z,1000.41
2018-01-06T02:32:06.775Z,1000.36
2018-01-06T02:33:07.156Z,1000.33
2018-01-06T02:34:07.301Z,1000.34
2018-01-06T02:35:07.511Z,1000.25
2018-01-06T02:36:07.711Z,1000.27
2018-01-06T02:37:08.137Z,1000.3
2018-01-06T02:38:08.154Z,1000.31
2018-01-06T02:39:08.208Z,1000.3
2018-01-06T02:40:08.256Z,1000.31
2018-01-06T02:41:08.284Z,1000.32
2018-01-06T02:42:08.523Z,1000.33
2018-01-06T02:43:08.803Z,1000.32
2018-01-06T02:44:09.097Z,1000.34
2018-01-06T02:45:08.839Z,1000.32
2018-01-06T02:46:09.053Z,1000.31
2018-01-06T02:47:09.360Z,1000.31
2018-01-06T02:48:09.385Z,1000.37
2018-01-06T02:49:09.834Z,1000.33
2018-01-06T02:50:10.258Z,1000.33
2018-01-06T02:51:10.550Z,1000.35
2018-01-06T02:52:10.654Z,1000.37
2018-01-06T02:53:10.960Z,1000.33
2018-01-06T02:54:10.996Z,1000.31
2018-01-06T02:55:11.006Z,1000.36
2018-01-06T02:56:11.026Z,1000.36
2018-01-06T02:57:11.049Z,1000.38
2018-01-06T02:58:11.080Z,1000.42
2018-01-06T02:59:11.235Z,1000.39
2018-01-06T03:00:11.384Z,1000.45
2018-01-06T03:01:11.650Z,1000.38
2018-01-06T03:02:11.662Z,1000.4
2018-01-06T03:03:12.079Z,1000.44
2018-01-06T03:04:12.546Z,1000.42
2018-01-06T03:05:12.550Z,1000.46
2018-01-06T03:06:12.591Z,1000.51
2018-01-06T03:07:12.715Z,1000.51
2018-01-06T03:08:13.126Z,1000.53
2018-01-06T03:09:13.229Z,1000.59
2018-01-06T03:10:13.294Z,1000.62
2018-01-06T03:11:13.263Z,1000.63
2018-01-06T03:12:13.740Z,1000.66
2018-01-06T03:13:13.664Z,1000.7
2018-01-06T03:14:14.254Z,1000.75
2018-01-06T03:15:14.730Z,1000.74
2018-01-06T03:16:14.542Z,1000.75
2018-01-06T03:17:14.562Z,1000.76
2018-01-06T03:18:14.951Z,1000.75
2018-01-06T03:19:15.060Z,1000.82
2018-01-06T03:20:15.388Z,1000.84
2018-01-06T03:21:15.396Z,1000.82
2018-01-06T03:22:15.597Z,1000.87
2018-01-06T03:23:15.998Z,1000.93
2018-01-06T03:24:16.035Z,1000.97
2018-01-06T03:25:16.134Z,1000.94
2018-01-06T03:26:16.162Z,1001.01
2018-01-06T03:27:16.190Z,1000.91
2018-01-06T03:28:16.394Z,1000.88
2018-01-06T03:29:16.419Z,1000.9
2018-01-06T03:30:16.432Z,1000.93
2018-01-06T03:31:16.611Z,1000.87
2018-01-06T03:32:17.036Z,1000.97
2018-01-06T03:33:17.061Z,1000.93
2018-01-06T03:34:17.086Z,1000.93
2018-01-06T03:35:17.525Z,1000.96
2018-01-06T03:36:17.947Z,1000.96
2018-01-06T03:37:17.971Z,1000.95
2018-01-06T03:38:18.151Z,1000.99
2018-01-06T03:39:18.022Z,1000.95
2018-01-06T03:40:18.176Z,1000.97
2018-01-06T03:41:18.578Z,1000.98
2018-01-06T03:42:18.624Z,1000.91
2018-01-06T03:43:18.643Z,1001
2018-01-06T03:44:18.679Z,1000.91
2018-01-06T03:45:18.691Z,1000.96
2018-01-06T03:46:18.920Z,1000.9
2018-01-06T03:47:19.408Z,1000.9
2018-01-06T03:48:19.474Z,1000.96
2018-01-06T03:49:19.444Z,1000.95
2018-01-06T03:50:19.449Z,1000.97
2018-01-06T03:51:19.472Z,1000.99
2018-01-06T03:52:19.501Z,1000.96
2018-01-06T03:53:19.691Z,1000.96
2018-01-06T03:54:19.706Z,1000.92
2018-01-06T03:55:20.275Z,1001
2018-01-06T03:56:19.803Z,1001.01
2018-01-06T03:57:20.012Z,1001.01
2018-01-06T03:58:19.859Z,1001.01
2018-01-06T03:59:20.041Z,1001.11
2018-01-06T04:00:20.097Z,1001.06
2018-01-06T04:01:21.217Z,1001.1
2018-01-06T04:02:21.064Z,1001.08
2018-01-06T04:03:21.098Z,1001.09
2018-01-06T04:04:21.114Z,1001.07
2018-01-06T04:05:21.584Z,1001.1
2018-01-06T04:06:21.834Z,1001.09
2018-01-06T04:07:21.900Z,1001.07
2018-01-06T04:08:21.883Z,1001.05
2018-01-06T04:09:21.932Z,1001.02
2018-01-06T04:10:21.953Z,1001.01
2018-01-06T04:11:22.086Z,1000.97
2018-01-06T04:12:22.287Z,1000.97
2018-01-06T04:13:22.310Z,1000.96
2018-01-06T04:14:22.662Z,1000.98
2018-01-06T04:15:23.077Z,1000.99
2018-01-06T04:16:23.110Z,1000.98
2018-01-06T04:17:23.222Z,1001.02
2018-01-06T04:18:23.243Z,1001
2018-01-06T04:19:23.370Z,1001.01
2018-01-06T04:20:23.564Z,1001.08
2018-01-06T04:21:23.588Z,1001.07
2018-01-06T04:22:23.991Z,1001.13
2018-01-06T04:23:24.013Z,1001.16
2018-01-06T04:24:24.187Z,1001.14
2018-01-06T04:25:24.235Z,1001.15
2018-01-06T04:26:24.233Z,1001.15
2018-01-06T04:27:24.255Z,1001.16
2018-01-06T04:28:24.287Z,1001.27
2018-01-06T04:29:24.320Z,1001.27
2018-01-06T04:30:24.338Z,1001.26
2018-01-06T04:31:24.731Z,1001.24
2018-01-06T04:32:24.743Z,1001.28
2018-01-06T04:33:24.773Z,1001.24
2018-01-06T04:34:24.952Z,1001.19
2018-01-06T04:35:25.231Z,1001.25
2018-01-06T04:36:25.623Z,1001.18
2018-01-06T04:37:25.709Z,1001.23
2018-01-06T04:38:25.648Z,1001.24
2018-01-06T04:39:25.670Z,1001.17
2018-01-06T04:40:25.848Z,1001.2
2018-01-06T04:41:25.865Z,1001.17
2018-01-06T04:42:25.964Z,1001.14
2018-01-06T04:43:25.926Z,1001.15
2018-01-06T04:44:26.080Z,1001.16
2018-01-06T04:45:26.125Z,1001.19
2018-01-06T04:46:26.258Z,1001.21
2018-01-06T04:47:26.668Z,1001.21
2018-01-06T04:48:26.712Z,1001.2
2018-01-06T04:49:26.821Z,1001.26
2018-01-06T04:50:26.792Z,1001.27
2018-01-06T04:51:26.810Z,1001.32
2018-01-06T04:52:26.806Z,1001.26
2018-01-06T04:53:27.229Z,1001.29
2018-01-06T04:54:27.625Z,1001.31
2018-01-06T04:55:27.704Z,1001.34
2018-01-06T04:56:27.703Z,1001.3
2018-01-06T04:57:28.163Z,1001.34
2018-01-06T04:58:28.353Z,1001.3
2018-01-06T04:59:28.163Z,1001.3
2018-01-06T05:00:28.185Z,1001.32
2018-01-06T05:01:28.383Z,1001.34
2018-01-06T05:02:28.553Z,1001.32
2018-01-06T05:03:29.250Z,1001.35
2018-01-06T05:04:28.898Z,1001.35
2018-01-06T05:05:28.925Z,1001.4
2018-01-06T05:06:28.957Z,1001.37
2018-01-06T05:07:29.239Z,1001.41
2018-01-06T05:08:29.262Z,1001.46
2018-01-06T05:09:29.257Z,1001.47
2018-01-06T05:10:29.275Z,1001.46
2018-01-06T05:11:29.506Z,1001.46
2018-01-06T05:12:29.677Z,1001.51
2018-01-06T05:13:29.599Z,1001.55
2018-01-06T05:14:29.568Z,1001.61
2018-01-06T05:15:29.580Z,1001.61
2018-01-06T05:16:29.587Z,1001.66
2018-01-06T05:17:29.612Z,1001.68
2018-01-06T05:18:29.663Z,1001.68
2018-01-06T05:19:29.649Z,1001.69
2018-01-06T05:20:29.690Z,1001.7
2018-01-06T05:21:29.696Z,1001.75
2018-01-06T05:22:29.999Z,1001.78
2018-01-06T05:23:30.066Z,1001.77
2018-01-06T05:24:30.061Z,1001.8
2018-01-06T05:25:30.082Z,1001.81
2018-01-06T05:26:30.161Z,1001.84
2018-01-06T05:27:30.185Z,1001.84
2018-01-06T05:28:30.326Z,1001.92
2018-01-06T05:29:30.500Z,1001.91
2018-01-06T05:30:30.695Z,1001.89
2018-01-06T05:31:30.714Z,1001.97
2018-01-06T05:32:30.869Z,1001.99
2018-01-06T05:33:30.918Z,1002.02
2018-01-06T05:34:30.938Z,1002
2018-01-06T05:35:31.323Z,1002.03
2018-01-06T05:36:31.631Z,1002.09
2018-01-06T05:37:31.499Z,1002.04
2018-01-06T05:38:31.537Z,1002.02
2018-01-06T05:39:31.563Z,1002.08
2018-01-06T05:40:31.730Z,1002.09
2018-01-06T05:41:31.759Z,1002.12
2018-01-06T05:42:32.173Z,1002.09
2018-01-06T05:43:32.201Z,1002.14
2018-01-06T05:44:32.351Z,1002.12
2018-01-06T05:45:32.651Z,1002.15
2018-01-06T05:46:32.668Z,1002.06
2018-01-06T05:47:32.843Z,1002.1
2018-01-06T05:48:32.972Z,1002.11
2018-01-06T05:49:33.187Z,1002.13
2018-01-06T05:50:33.219Z,1002.11
2018-01-06T05:51:33.649Z,1002.14
2018-01-06T05:52:33.668Z,1002.13
2018-01-06T05:53:33.759Z,1002.13
2018-01-06T05:54:33.784Z,1002.13
2018-01-06T05:55:34.239Z,1002.16
2018-01-06T05:56:34.247Z,1002.2
2018-01-06T05:57:34.465Z,1002.18
2018-01-06T05:58:34.517Z,1002.22
2018-01-06T05:59:34.761Z,1002.29
2018-01-06T06:00:34.796Z,1002.27
2018-01-06T06:01:34.890Z,1002.32
2018-01-06T06:02:34.902Z,1002.42
2018-01-06T06:03:35.329Z,1002.34
2018-01-06T06:04:35.359Z,1002.32
2018-01-06T06:05:35.361Z,1002.28
2018-01-06T06:06:35.627Z,1002.32
2018-01-06T06:07:35.613Z,1002.3
2018-01-06T06:08:35.625Z,1002.35
2018-01-06T06:09:36.030Z,1002.3
2018-01-06T06:10:36.035Z,1002.34
2018-01-06T06:11:36.094Z,1002.3
2018-01-06T06:12:36.272Z,1002.35
2018-01-06T06:13:36.528Z,1002.31
2018-01-06T06:14:36.655Z,1002.36
2018-01-06T06:15:36.670Z,1002.36
2018-01-06T06:16:36.685Z,1002.32
2018-01-06T06:17:36.720Z,1002.35
2018-01-06T06:18:37.161Z,1002.3
2018-01-06T06:19:37.526Z,1002.38
2018-01-06T06:20:37.533Z,1002.32
2018-01-06T06:21:37.966Z,1002.32
2018-01-06T06:22:37.992Z,1002.32
2018-01-06T06:23:38.034Z,1002.37
2018-01-06T06:24:38.040Z,1002.42
2018-01-06T06:25:38.081Z,1002.43
2018-01-06T06:26:38.231Z,1002.44
2018-01-06T06:27:38.599Z,1002.46
2018-01-06T06:28:38.695Z,1002.49
2018-01-06T06:29:39.154Z,1002.5
2018-01-06T06:30:39.190Z,1002.53
2018-01-06T06:31:39.174Z,1002.59
2018-01-06T06:32:39.522Z,1002.53
2018-01-06T06:33:39.634Z,1002.56
2018-01-06T06:34:39.814Z,1002.57
2018-01-06T06:35:40.106Z,1002.53
2018-01-06T06:36:40.848Z,1002.54
2018-01-06T06:37:40.842Z,1002.55
2018-01-06T06:38:40.841Z,1002.58
2018-01-06T06:39:40.922Z,1002.54
2018-01-06T06:40:40.949Z,1002.56
2018-01-06T06:41:41.322Z,1002.63
2018-01-06T06:42:41.396Z,1002.64
2018-01-06T06:43:41.434Z,1002.69
2018-01-06T06:44:41.428Z,1002.66
2018-01-06T06:45:41.644Z,1002.65
2018-01-06T06:46:41.649Z,1002.65
2018-01-06T06:47:41.652Z,1002.59
2018-01-06T06:48:41.970Z,1002.56
2018-01-06T06:49:41.960Z,1002.57
2018-01-06T06:50:42.288Z,1002.65
2018-01-06T06:51:42.348Z,1002.62
2018-01-06T06:52:42.519Z,1002.63
2018-01-06T06:53:42.715Z,1002.66
2018-01-06T06:54:42.731Z,1002.63
2018-01-06T06:55:43.174Z,1002.61
2018-01-06T06:56:43.263Z,1002.7
2018-01-06T06:57:43.398Z,1002.72
2018-01-06T06:58:43.487Z,1002.8
2018-01-06T06:59:43.523Z,1002.78
2018-01-06T07:00:43.559Z,1002.77
2018-01-06T07:01:43.563Z,1002.81
2018-01-06T07:02:43.904Z,1002.81
2018-01-06T07:03:43.988Z,1002.81
2018-01-06T07:04:43.960Z,1002.82
2018-01-06T07:05:44.102Z,1002.82
2018-01-06T07:06:44.107Z,1002.9
2018-01-06T07:07:44.467Z,1002.85
2018-01-06T07:08:44.485Z,1002.89
2018-01-06T07:09:44.594Z,1002.9
2018-01-06T07:10:44.597Z,1002.88
2018-01-06T07:11:44.988Z,1002.92
2018-01-06T07:12:45.008Z,1002.96
2018-01-06T07:13:45.034Z,1002.89
2018-01-06T07:14:45.155Z,1002.99
2018-01-06T07:15:45.262Z,1002.96
2018-01-06T07:16:45.544Z,1002.99
2018-01-06T07:17:45.941Z,1003.13
2018-01-06T07:18:46.376Z,1003.11
2018-01-06T07:19:46.513Z,1003.15
2018-01-06T07:20:47.050Z,1003.24
2018-01-06T07:21:47.029Z,1003.21
2018-01-06T07:22:47.008Z,1003.27
2018-01-06T07:23:47.034Z,1003.24
2018-01-06T07:24:47.374Z,1003.29
2018-01-06T07:25:47.765Z,1003.32
2018-01-06T07:26:47.872Z,1003.32
2018-01-06T07:27:47.873Z,1003.4
2018-01-06T07:28:47.897Z,1003.38
2018-01-06T07:29:47.928Z,1003.37
2018-01-06T07:30:48.143Z,1003.46
2018-01-06T07:31:48.198Z,1003.44
2018-01-06T07:32:48.333Z,1003.49
2018-01-06T07:33:48.340Z,1003.51
2018-01-06T07:34:48.374Z,1003.45
2018-01-06T07:35:48.634Z,1003.54
2018-01-06T07:36:48.572Z,1003.6
2018-01-06T07:37:48.769Z,1003.68
2018-01-06T07:38:48.786Z,1003.63
2018-01-06T07:39:48.828Z,1003.69
2018-01-06T07:40:49.064Z,1003.77
2018-01-06T07:41:49.111Z,1003.7
2018-01-06T07:42:49.141Z,1003.69
2018-01-06T07:43:49.310Z,1003.74
2018-01-06T07:44:49.602Z,1003.72
2018-01-06T07:45:49.673Z,1003.75
2018-01-06T07:46:49.703Z,1003.75
2018-01-06T07:47:50.104Z,1003.77
2018-01-06T07:48:50.277Z,1003.83
2018-01-06T07:49:50.418Z,1003.83
2018-01-06T07:50:50.450Z,1003.82
2018-01-06T07:51:50.724Z,1003.86
2018-01-06T07:52:50.885Z,1003.89
2018-01-06T07:53:50.792Z,1003.94
2018-01-06T07:54:50.922Z,1003.91
2018-01-06T07:55:51.340Z,1003.97
2018-01-06T07:56:51.389Z,1003.99
2018-01-06T07:57:51.790Z,1004.03
2018-01-06T07:58:51.817Z,1004.03
2018-01-06T07:59:51.933Z,1004.05
2018-01-06T08:00:51.997Z,1004.07
2018-01-06T08:01:51.988Z,1004.04
2018-01-06T08:02:52.012Z,1004.04
2018-01-06T08:03:52.142Z,1003.96
2018-01-06T08:04:52.182Z,1004.02
2018-01-06T08:05:52.197Z,1004.07
2018-01-06T08:06:52.331Z,1004.1
2018-01-06T08:07:52.640Z,1004.14
2018-01-06T08:08:52.680Z,1004.17
2018-01-06T08:09:52.694Z,1004.18
2018-01-06T08:10:52.716Z,1004.18
2018-01-06T08:11:52.748Z,1004.28
2018-01-06T08:12:52.768Z,1004.27
2018-01-06T08:13:52.874Z,1004.21
2018-01-06T08:14:52.976Z,1004.25
2018-01-06T08:15:53.024Z,1004.24
2018-01-06T08:16:53.427Z,1004.23
2018-01-06T08:17:53.551Z,1004.23
2018-01-06T08:18:53.578Z,1004.25
2018-01-06T08:19:53.602Z,1004.23
2018-01-06T08:20:53.636Z,1004.23
2018-01-06T08:21:53.749Z,1004.23
2018-01-06T08:22:54.188Z,1004.2
2018-01-06T08:23:54.464Z,1004.18
2018-01-06T08:24:54.483Z,1004.19
2018-01-06T08:25:54.495Z,1004.18
2018-01-06T08:26:54.531Z,1004.18
2018-01-06T08:27:54.668Z,1004.17
2018-01-06T08:28:54.877Z,1004.21
2018-01-06T08:29:54.972Z,1004.22
2018-01-06T08:30:55.128Z,1004.18
2018-01-06T08:31:55.135Z,1004.15
2018-01-06T08:32:55.186Z,1004.18
2018-01-06T08:33:55.326Z,1004.22
2018-01-06T08:34:55.338Z,1004.2
2018-01-06T08:35:55.522Z,1004.26
2018-01-06T08:36:55.931Z,1004.19
2018-01-06T08:37:55.958Z,1004.23
2018-01-06T08:38:55.987Z,1004.26
2018-01-06T08:39:56.027Z,1004.3
2018-01-06T08:40:56.281Z,1004.26
2018-01-06T08:41:56.372Z,1004.33
2018-01-06T08:42:56.329Z,1004.37
2018-01-06T08:43:56.356Z,1004.35
2018-01-06T08:44:56.469Z,1004.41
2018-01-06T08:45:56.449Z,1004.39
2018-01-06T08:46:56.946Z,1004.39
2018-01-06T08:47:56.958Z,1004.43
2018-01-06T08:48:57.028Z,1004.47
2018-01-06T08:49:57.095Z,1004.49
2018-01-06T08:50:57.105Z,1004.47
2018-01-06T08:51:57.292Z,1004.56
2018-01-06T08:52:57.494Z,1004.51
2018-01-06T08:53:57.789Z,1004.54
2018-01-06T08:54:57.848Z,1004.54
2018-01-06T08:55:57.902Z,1004.5
2018-01-06T08:56:57.897Z,1004.51
2018-01-06T08:57:57.921Z,1004.6
2018-01-06T08:58:58.091Z,1004.66
2018-01-06T08:59:58.232Z,1004.64
2018-01-06T09:00:58.258Z,1004.7
2018-01-06T09:01:58.286Z,1004.7
2018-01-06T09:02:58.449Z,1004.71
2018-01-06T09:03:58.457Z,1004.74
2018-01-06T09:04:58.589Z,1004.78
2018-01-06T09:05:58.580Z,1004.77
2018-01-06T09:06:59.270Z,1004.79
2018-01-06T09:07:59.590Z,1004.81
2018-01-06T09:08:59.689Z,1004.84
2018-01-06T09:09:59.628Z,1004.79
2018-01-06T09:10:59.683Z,1004.82
2018-01-06T09:12:00.022Z,1004.82
2018-01-06T09:13:00.041Z,1004.8
2018-01-06T09:14:00.047Z,1004.8
2018-01-06T09:14:59.902Z,1004.79
2018-01-06T09:16:00.122Z,1004.87
2018-01-06T09:16:59.979Z,1004.85
2018-01-06T09:18:00.228Z,1004.87
2018-01-06T09:19:00.107Z,1004.87
2018-01-06T09:20:06.970Z,1004.87
2018-01-06T09:21:06.794Z,1004.87
2018-01-06T09:22:07.085Z,1004.9
2018-01-06T09:23:07.229Z,1004.89
2018-01-06T09:24:06.926Z,1004.93
2018-01-06T09:25:06.839Z,1004.93
2018-01-06T09:26:06.808Z,1004.95
2018-01-06T09:27:06.961Z,1004.94
2018-01-06T09:28:06.990Z,1004.98
2018-01-06T09:29:06.876Z,1004.97
2018-01-06T09:30:06.959Z,1005.01
2018-01-06T09:31:07.116Z,1004.99
2018-01-06T09:32:07.025Z,1004.99
2018-01-06T09:33:07.320Z,1005.05
2018-01-06T09:34:07.112Z,1005.03
2018-01-06T09:35:07.139Z,1004.98
2018-01-06T09:36:07.011Z,1005.03
2018-01-06T09:37:07.240Z,1005.05
2018-01-06T09:38:07.066Z,1005.06
2018-01-06T09:39:07.155Z,1005.06
2018-01-06T09:40:07.205Z,1005.05
2018-01-06T09:41:07.298Z,1005.08
2018-01-06T09:42:07.284Z,1005.13
2018-01-06T09:43:07.298Z,1005.1
2018-01-06T09:44:07.560Z,1005.15
2018-01-06T09:45:07.958Z,1005.15
2018-01-06T09:46:08.068Z,1005.1
2018-01-06T09:47:08.407Z,1005.06
2018-01-06T09:48:08.433Z,1005.05
2018-01-06T09:49:08.506Z,1005.12
2018-01-06T09:50:08.634Z,1005.12
2018-01-06T09:51:08.634Z,1005.11
2018-01-06T09:52:08.927Z,1005.11
2018-01-06T09:53:08.926Z,1005.1
2018-01-06T09:54:08.930Z,1005.11
2018-01-06T09:55:08.964Z,1005.08
2018-01-06T09:56:09.115Z,1005.14
2018-01-06T09:57:09.019Z,1005.14
2018-01-06T09:58:09.405Z,1005.09
2018-01-06T09:59:09.436Z,1005.12
2018-01-06T10:00:24.184Z,1005.14
2018-01-06T10:01:24.321Z,1005.2
2018-01-06T10:02:24.367Z,1005.19
2018-01-06T10:03:24.356Z,1005.21
2018-01-06T10:04:24.526Z,1005.22
2018-01-06T10:05:24.596Z,1005.23
2018-01-06T10:06:24.584Z,1005.22
2018-01-06T10:07:24.632Z,1005.24
2018-01-06T10:08:24.660Z,1005.21
2018-01-06T10:09:24.662Z,1005.21
2018-01-06T10:10:24.705Z,1005.25
2018-01-06T10:11:25.135Z,1005.24
2018-01-06T10:12:26.147Z,1005.27
2018-01-06T10:13:25.808Z,1005.27
2018-01-06T10:14:26.202Z,1005.25
2018-01-06T10:15:26.585Z,1005.28
2018-01-06T10:16:26.670Z,1005.34
2018-01-06T10:17:26.710Z,1005.32
2018-01-06T10:18:26.880Z,1005.33
2018-01-06T10:19:26.958Z,1005.35
2018-01-06T10:20:26.930Z,1005.35
2018-01-06T10:21:27.020Z,1005.36
2018-01-06T10:22:27.163Z,1005.37
2018-01-06T10:23:27.192Z,1005.4
2018-01-06T10:24:27.238Z,1005.32
2018-01-06T10:25:27.244Z,1005.3
2018-01-06T10:26:27.271Z,1005.3
2018-01-06T10:27:27.396Z,1005.32
2018-01-06T10:28:27.521Z,1005.28
2018-01-06T10:29:27.793Z,1005.22
2018-01-06T10:30:27.833Z,1005.23
2018-01-06T10:31:28.238Z,1005.23
2018-01-06T10:32:28.653Z,1005.25
2018-01-06T10:33:28.653Z,1005.28
2018-01-06T10:34:29.253Z,1005.32
2018-01-06T10:35:29.286Z,1005.36
2018-01-06T10:36:29.350Z,1005.4
2018-01-06T10:37:29.351Z,1005.36
2018-01-06T10:38:29.425Z,1005.34
2018-01-06T10:39:29.878Z,1005.38
2018-01-06T10:40:30.245Z,1005.38
2018-01-06T10:41:30.271Z,1005.34
2018-01-06T10:42:30.305Z,1005.35
2018-01-06T10:43:30.717Z,1005.39
2018-01-06T10:44:30.725Z,1005.3
2018-01-06T10:45:31.757Z,1005.32
2018-01-06T10:46:31.504Z,1005.27
2018-01-06T10:47:31.839Z,1005.23
2018-01-06T10:48:31.863Z,1005.24
2018-01-06T10:49:32.153Z,1005.31
2018-01-06T10:50:32.176Z,1005.26
2018-01-06T10:51:32.322Z,1005.27
2018-01-06T10:52:32.334Z,1005.29
2018-01-06T10:53:32.702Z,1005.3
2018-01-06T10:54:32.875Z,1005.32
2018-01-06T10:55:33.068Z,1005.31
2018-01-06T10:56:33.441Z,1005.32
2018-01-06T10:57:33.735Z,1005.34
2018-01-06T10:58:33.354Z,1005.36
2018-01-06T10:59:33.361Z,1005.37
2018-01-06T11:00:33.407Z,1005.38
2018-01-06T11:01:33.424Z,1005.42
2018-01-06T11:02:33.526Z,1005.45
2018-01-06T11:03:33.877Z,1005.45
2018-01-06T11:04:33.525Z,1005.42
2018-01-06T11:05:33.808Z,1005.47
2018-01-06T11:06:33.910Z,1005.46
2018-01-06T11:07:33.656Z,1005.45
2018-01-06T11:08:33.803Z,1005.47
2018-01-06T11:09:33.673Z,1005.45
2018-01-06T11:10:33.674Z,1005.49
2018-01-06T11:11:33.708Z,1005.4
2018-01-06T11:12:33.854Z,1005.48
2018-01-06T11:13:34.318Z,1005.51
2018-01-06T11:14:34.416Z,1005.58
2018-01-06T11:15:34.527Z,1005.53
2018-01-06T11:16:34.644Z,1005.5
2018-01-06T11:17:34.650Z,1005.57
2018-01-06T11:18:34.788Z,1005.46
2018-01-06T11:19:35.128Z,1005.5
2018-01-06T11:20:35.480Z,1005.51
2018-01-06T11:21:35.461Z,1005.57
2018-01-06T11:22:35.506Z,1005.64
2018-01-06T11:23:35.579Z,1005.7
2018-01-06T11:24:35.956Z,1005.72
2018-01-06T11:25:35.980Z,1005.78
2018-01-06T11:26:36.072Z,1005.78
2018-01-06T11:27:36.040Z,1005.83
2018-01-06T11:28:36.060Z,1005.8
2018-01-06T11:29:36.231Z,1005.83
2018-01-06T11:30:36.640Z,1005.8
2018-01-06T11:31:36.798Z,1005.85
2018-01-06T11:32:37.252Z,1005.8
2018-01-06T11:33:37.386Z,1005.83
2018-01-06T11:34:37.554Z,1005.83
2018-01-06T11:35:37.541Z,1005.83
2018-01-06T11:36:37.559Z,1005.85
2018-01-06T11:37:37.998Z,1005.81
2018-01-06T11:38:38.142Z,1005.82
2018-01-06T11:39:38.522Z,1005.83
2018-01-06T11:40:38.547Z,1005.86
2018-01-06T11:41:38.572Z,1005.83
2018-01-06T11:42:38.636Z,1005.81
2018-01-06T11:43:38.627Z,1005.84
2018-01-06T11:44:39.009Z,1005.88
2018-01-06T11:45:39.032Z,1005.91
2018-01-06T11:46:39.104Z,1005.9
2018-01-06T11:47:39.128Z,1005.88
2018-01-06T11:48:39.119Z,1005.91
2018-01-06T11:49:39.140Z,1005.9
2018-01-06T11:50:39.518Z,1005.9
2018-01-06T11:51:39.661Z,1005.89
2018-01-06T11:52:39.683Z,1005.88
2018-01-06T11:53:39.734Z,1005.97
2018-01-06T11:54:39.767Z,1005.92
2018-01-06T11:55:39.809Z,1005.95
2018-01-06T11:56:39.966Z,1005.96
2018-01-06T11:57:39.990Z,1005.97
2018-01-06T11:58:40.116Z,1005.94
2018-01-06T11:59:40.163Z,1005.91
2018-01-06T12:00:40.161Z,1005.95
2018-01-06T12:01:40.183Z,1005.93
2018-01-06T12:02:40.291Z,1005.98
2018-01-06T12:03:40.318Z,1005.96
2018-01-06T12:04:40.345Z,1006.01
2018-01-06T12:05:40.393Z,1006.02
2018-01-06T12:06:40.606Z,1006.07
2018-01-06T12:07:40.612Z,1006.02
2018-01-06T12:08:40.709Z,1006.03
2018-01-06T12:09:40.750Z,1005.93
2018-01-06T12:10:40.787Z,1005.99
2018-01-06T12:11:41.041Z,1006.01
2018-01-06T12:12:41.494Z,1006.06
2018-01-06T12:13:41.647Z,1006.02
2018-01-06T12:14:41.928Z,1006.03